createdAt,value
2019-04-22T00:01:30.771Z,13.70
2019-04-22T00:04:04.443Z,13.70
2019-04-22T00:07:01.351Z,13.70
2019-04-22T00:09:31.007Z,13.80
2019-04-22T00:12:07.462Z,13.70
2019-04-22T00:14:30.780Z,13.80
2019-04-22T00:17:09.529Z,13.90
2019-04-22T00:19:36.079Z,14.00
2019-04-22T00:22:13.936Z,14.10
2019-04-22T00:24:40.209Z,14.00
2019-04-22T00:27:14.054Z,13.80
2019-04-22T00:30:00.621Z,13.80
2019-04-22T00:32:36.506Z,13.60
2019-04-22T00:35:09.730Z,13.60
2019-04-22T00:37:43.833Z,13.60
2019-04-22T00:40:14.893Z,13.60
2019-04-22T00:42:47.663Z,13.60
2019-04-22T00:45:19.369Z,13.60
2019-04-22T00:47:43.598Z,13.70
2019-04-22T00:50:25.356Z,13.70
2019-04-22T00:52:57.944Z,13.60
2019-04-22T00:55:26.258Z,13.50
2019-04-22T00:58:02.765Z,13.40
2019-04-22T01:00:36.347Z,13.30
2019-04-22T01:03:07.484Z,13.30
2019-04-22T01:05:34.146Z,13.20
2019-04-22T01:08:07.122Z,13.10
2019-04-22T01:10:40.501Z,13.00
2019-04-22T01:13:16.704Z,13.10
2019-04-22T01:15:40.457Z,13.30
2019-04-22T01:18:11.457Z,13.40
2019-04-22T01:21:12.639Z,13.40
2019-04-22T01:23:18.771Z,13.50
2019-04-22T01:25:44.845Z,13.60
2019-04-22T01:28:15.666Z,13.60
2019-04-22T01:30:50.987Z,13.90
2019-04-22T01:33:21.814Z,14.00
2019-04-22T01:36:06.833Z,13.90
2019-04-22T01:38:38.953Z,13.70
2019-04-22T01:41:16.009Z,13.50
2019-04-22T01:43:54.482Z,13.50
2019-04-22T01:46:16.925Z,13.50
2019-04-22T01:48:57.201Z,13.40
2019-04-22T01:51:35.439Z,13.50
2019-04-22T01:53:57.976Z,13.40
2019-04-22T01:56:27.372Z,13.40
2019-04-22T01:58:50.205Z,13.50
2019-04-22T02:01:32.121Z,13.60
2019-04-22T02:04:01.592Z,13.60
2019-04-22T02:06:35.054Z,13.30
2019-04-22T02:09:14.027Z,13.20
2019-04-22T02:11:39.094Z,13.20
2019-04-22T02:14:13.234Z,13.10
2019-04-22T02:16:41.616Z,13.20
2019-04-22T02:19:19.162Z,13.10
2019-04-22T02:21:46.556Z,13.20
2019-04-22T02:24:28.359Z,13.30
2019-04-22T02:26:50.955Z,13.40
2019-04-22T02:29:21.897Z,13.30
2019-04-22T02:32:13.341Z,13.20
2019-04-22T02:34:39.996Z,13.20
2019-04-22T02:37:04.891Z,13.30
2019-04-22T02:39:54.957Z,13.30
2019-04-22T02:42:13.292Z,13.10
2019-04-22T02:44:42.229Z,13.10
2019-04-22T02:47:31.024Z,13.10
2019-04-22T02:49:49.448Z,13.20
2019-04-22T02:57:29.782Z,12.90
2019-04-22T03:00:09.686Z,12.60
2019-04-22T03:02:46.109Z,12.60
2019-04-22T03:05:06.781Z,12.50
2019-04-22T03:07:32.301Z,12.70
2019-04-22T03:10:10.018Z,12.80
2019-04-22T03:17:38.344Z,12.80
2019-04-22T03:22:47.428Z,12.40
2019-04-22T03:30:51.080Z,12.50
2019-04-22T03:35:39.859Z,12.40
2019-04-22T03:40:55.306Z,12.50
2019-04-22T03:43:35.748Z,12.20
2019-04-22T03:48:02.805Z,11.90
2019-04-22T03:58:01.155Z,11.50
2019-04-22T04:08:26.796Z,12.10
2019-04-22T04:10:53.405Z,11.80
2019-04-22T04:13:30.373Z,11.80
2019-04-22T04:15:55.774Z,11.50
2019-04-22T04:18:44.253Z,11.60
2019-04-22T04:23:50.927Z,12.10
2019-04-22T04:26:35.285Z,12.30
2019-04-22T04:33:46.581Z,12.20
2019-04-22T04:36:27.111Z,11.80
2019-04-22T04:41:24.886Z,11.80
2019-04-22T04:44:53.125Z,11.70
2019-04-22T04:46:37.581Z,11.60
2019-04-22T04:54:12.907Z,12.00
2019-04-22T05:00:10.880Z,12.10
2019-04-22T05:01:49.313Z,12.00
2019-04-22T05:04:14.661Z,11.80
2019-04-22T05:16:47.749Z,11.30
2019-04-22T05:19:24.012Z,11.30
2019-04-22T05:21:56.060Z,11.50
2019-04-22T05:24:26.003Z,11.40
2019-04-22T05:27:16.390Z,11.40
2019-04-22T05:29:35.077Z,11.50
2019-04-22T05:32:30.787Z,11.50
2019-04-22T05:34:48.226Z,11.80
2019-04-22T05:37:20.667Z,11.70
2019-04-22T05:40:04.446Z,11.70
2019-04-22T05:42:51.520Z,11.70
2019-04-22T05:45:04.611Z,11.80
2019-04-22T05:47:32.481Z,11.80
2019-04-22T05:50:11.289Z,11.90
2019-04-22T05:52:43.168Z,12.00
2019-04-22T05:55:14.411Z,12.10
2019-04-22T05:57:48.936Z,12.20
2019-04-22T06:00:23.160Z,12.20
2019-04-22T06:05:29.214Z,12.10
2019-04-22T06:08:02.517Z,12.30
2019-04-22T06:10:33.439Z,12.30
2019-04-22T06:13:00.800Z,12.20
2019-04-22T06:15:36.282Z,12.20
2019-04-22T06:18:16.125Z,12.30
2019-04-22T06:20:53.466Z,12.30
2019-04-22T06:23:30.694Z,12.20
2019-04-22T06:26:05.828Z,12.30
2019-04-22T06:31:02.608Z,12.40
2019-04-22T06:36:03.295Z,12.70
2019-04-22T06:38:37.676Z,12.80
2019-04-22T06:41:09.186Z,12.90
2019-04-22T06:43:49.639Z,13.00
2019-04-22T06:46:17.206Z,12.80
2019-04-22T06:48:45.776Z,12.90
2019-04-22T06:51:18.468Z,12.80
2019-04-22T06:53:48.136Z,12.90
2019-04-22T06:56:15.742Z,13.00
2019-04-22T06:59:06.888Z,13.10
2019-04-22T07:01:27.633Z,13.10
2019-04-22T07:11:29.694Z,13.30
2019-04-22T07:16:37.877Z,13.40
2019-04-22T07:19:07.709Z,13.60
2019-04-22T07:21:37.341Z,13.60
2019-04-22T07:24:27.787Z,13.70
2019-04-22T07:26:44.859Z,13.80
2019-04-22T07:29:12.084Z,13.90
2019-04-22T07:31:49.597Z,13.90
2019-04-22T07:34:33.224Z,14.00
2019-04-22T07:39:23.561Z,14.20
2019-04-22T07:41:51.380Z,14.30
2019-04-22T07:44:31.175Z,14.40
2019-04-22T07:47:06.286Z,14.60
2019-04-22T07:49:47.188Z,14.80
2019-04-22T07:52:04.813Z,14.70
2019-04-22T07:54:33.991Z,14.70
2019-04-22T07:57:16.399Z,14.90
2019-04-22T07:59:40.887Z,15.00
2019-04-22T08:02:16.282Z,15.10
2019-04-22T08:07:18.297Z,14.70
2019-04-22T08:10:00.331Z,14.60
2019-04-22T08:12:23.387Z,14.50
2019-04-22T08:14:55.143Z,14.60
2019-04-22T08:22:27.386Z,15.10
2019-04-22T08:25:01.310Z,15.20
2019-04-22T08:27:35.594Z,15.40
2019-04-22T08:30:30.354Z,15.70
2019-04-22T08:32:53.129Z,16.10
2019-04-22T08:35:40.918Z,16.20
2019-04-22T08:37:57.569Z,16.50
2019-04-22T08:40:36.392Z,16.80
2019-04-22T08:45:38.550Z,17.10
2019-04-22T08:48:29.614Z,17.10
2019-04-22T08:51:00.821Z,17.30
2019-04-22T08:53:31.657Z,17.40
2019-04-22T08:56:21.997Z,17.60
2019-04-22T08:58:40.379Z,17.20
2019-04-22T09:01:11.234Z,17.50
2019-04-22T09:03:38.277Z,17.50
2019-04-22T09:06:22.648Z,17.60
2019-04-22T09:08:50.508Z,17.70
2019-04-22T09:11:19.864Z,17.90
2019-04-22T09:13:51.416Z,18.10
2019-04-22T09:16:26.446Z,18.30
2019-04-22T09:18:56.150Z,18.30
2019-04-22T09:21:26.401Z,18.50
2019-04-22T09:23:58.358Z,18.70
2019-04-22T09:26:30.290Z,18.80
2019-04-22T09:31:29.236Z,18.90
2019-04-22T09:33:59.713Z,19.20
2019-04-22T09:36:42.093Z,19.30
2019-04-22T09:39:09.253Z,19.10
2019-04-22T09:41:48.381Z,19.10
2019-04-22T09:44:07.875Z,19.00
2019-04-22T09:46:47.080Z,19.00
2019-04-22T09:49:18.936Z,19.30
2019-04-22T09:51:54.092Z,19.40
2019-04-22T09:54:33.306Z,19.40
2019-04-22T09:56:55.096Z,19.40
2019-04-22T09:59:32.646Z,19.40
2019-04-22T10:02:13.290Z,19.80
2019-04-22T10:04:33.074Z,20.00
2019-04-22T10:07:01.272Z,20.20
2019-04-22T10:10:00.266Z,20.40
2019-04-22T10:12:11.934Z,20.50
2019-04-22T10:17:15.514Z,20.50
2019-04-22T10:19:41.099Z,20.30
2019-04-22T10:22:19.268Z,20.70
2019-04-22T10:24:45.009Z,20.40
2019-04-22T10:27:20.886Z,20.40
2019-04-22T10:30:04.113Z,21.00
2019-04-22T10:32:27.136Z,21.50
2019-04-22T10:34:43.574Z,21.80
2019-04-22T10:37:11.756Z,22.10
2019-04-22T10:39:54.110Z,21.90
2019-04-22T10:42:19.173Z,22.40
2019-04-22T10:44:50.323Z,22.40
2019-04-22T10:47:22.316Z,22.30
2019-04-22T10:49:54.099Z,22.60
2019-04-22T10:52:25.570Z,22.60
2019-04-22T10:54:55.859Z,22.30
2019-04-22T10:57:27.586Z,22.40
2019-04-22T10:59:59.025Z,22.60
2019-04-22T11:02:29.844Z,22.70
2019-04-22T11:05:02.044Z,22.80
2019-04-22T11:07:39.732Z,23.00
2019-04-22T11:10:20.607Z,23.30
2019-04-22T11:12:37.703Z,23.30
2019-04-22T11:15:10.073Z,23.50
2019-04-22T11:17:41.761Z,23.90
2019-04-22T11:20:13.444Z,23.80
2019-04-22T11:22:44.665Z,24.10
2019-04-22T11:25:16.078Z,24.30
2019-04-22T11:27:47.223Z,24.40
2019-04-22T11:30:21.506Z,24.30
2019-04-22T11:32:50.699Z,24.80
2019-04-22T11:35:24.112Z,24.20
2019-04-22T11:37:54.971Z,24.20
2019-04-22T11:40:34.882Z,24.80
2019-04-22T11:42:59.642Z,25.20
2019-04-22T11:45:31.286Z,25.50
2019-04-22T11:48:01.588Z,25.20
2019-04-22T11:50:33.463Z,25.40
2019-04-22T11:53:04.791Z,25.70
2019-04-22T11:55:35.234Z,25.70
2019-04-22T11:58:06.728Z,25.80
2019-04-22T12:00:38.999Z,25.80
2019-04-22T12:03:09.461Z,25.90
2019-04-22T12:05:39.827Z,26.10
2019-04-22T12:08:11.302Z,26.20
2019-04-22T12:10:49.217Z,26.00
2019-04-22T12:13:13.616Z,26.40
2019-04-22T12:15:44.931Z,27.00
2019-04-22T12:18:17.213Z,27.30
2019-04-22T12:20:47.552Z,27.10
2019-04-22T12:23:18.959Z,27.10
2019-04-22T12:25:57.125Z,27.10
2019-04-22T12:28:21.641Z,26.90
2019-04-22T12:30:53.541Z,27.30
2019-04-22T12:33:25.273Z,27.70
2019-04-22T12:35:56.781Z,27.50
2019-04-22T12:38:27.524Z,27.70
2019-04-22T12:41:04.204Z,27.90
2019-04-22T12:43:31.818Z,28.00
2019-04-22T12:46:02.560Z,28.50
2019-04-22T12:48:32.959Z,28.10
2019-04-22T12:51:04.910Z,28.30
2019-04-22T12:53:36.078Z,28.40
2019-04-22T12:56:07.116Z,29.00
2019-04-22T12:58:38.020Z,28.50
2019-04-22T13:01:08.759Z,28.90
2019-04-22T13:03:40.202Z,28.40
2019-04-22T13:06:11.886Z,28.80
2019-04-22T13:08:43.544Z,29.20
2019-04-22T13:11:17.684Z,28.70
2019-04-22T13:13:47.064Z,28.70
2019-04-22T13:16:17.485Z,29.10
2019-04-22T13:18:53.838Z,29.20
2019-04-22T13:21:20.421Z,29.70
2019-04-22T13:23:50.845Z,29.00
2019-04-22T13:26:21.194Z,29.10
2019-04-22T13:28:51.451Z,29.20
2019-04-22T13:31:22.817Z,29.60
2019-04-22T13:33:57.208Z,30.30
2019-04-22T13:36:27.628Z,30.90
2019-04-22T13:38:56.254Z,30.50
2019-04-22T13:41:35.742Z,29.10
2019-04-22T13:43:58.100Z,28.60
2019-04-22T13:46:31.265Z,28.30
2019-04-22T13:49:37.771Z,28.00
2019-04-22T13:54:50.428Z,28.80
2019-04-22T13:56:54.891Z,29.00
2019-04-22T13:59:17.310Z,29.10
2019-04-22T14:01:58.846Z,28.60
2019-04-22T14:04:32.776Z,28.20
2019-04-22T14:07:02.858Z,27.90
2019-04-22T14:09:33.902Z,27.40
2019-04-22T14:12:06.186Z,27.50
2019-04-22T14:14:35.813Z,27.40
2019-04-22T14:17:07.203Z,27.30
2019-04-22T14:19:37.200Z,27.10
2019-04-22T14:22:07.729Z,26.80
2019-04-22T14:24:38.655Z,26.40
2019-04-22T14:27:21.747Z,26.40
2019-04-22T14:29:41.999Z,26.60
2019-04-22T14:32:17.819Z,26.60
2019-04-22T14:34:44.931Z,26.20
2019-04-22T14:37:16.448Z,26.40
2019-04-22T14:39:48.145Z,26.70
2019-04-22T14:42:42.521Z,26.60
2019-04-22T14:45:23.259Z,26.70
2019-04-22T14:47:49.366Z,26.70
2019-04-22T14:50:17.508Z,26.50
2019-04-22T14:52:47.499Z,26.40
2019-04-22T14:55:09.060Z,26.40
2019-04-22T14:57:32.289Z,26.70
2019-04-22T15:00:02.313Z,26.30
2019-04-22T15:02:33.874Z,26.10
2019-04-22T15:05:05.954Z,25.80
2019-04-22T15:07:37.093Z,25.70
2019-04-22T15:10:08.263Z,25.50
2019-04-22T15:12:45.725Z,25.20
2019-04-22T15:15:21.745Z,25.10
2019-04-22T15:18:03.968Z,25.00
2019-04-22T15:20:54.046Z,24.60
2019-04-22T15:23:24.768Z,24.50
2019-04-22T15:25:55.079Z,24.50
2019-04-22T15:28:25.331Z,24.30
2019-04-22T15:30:55.638Z,24.10
2019-04-22T15:33:25.863Z,24.00
2019-04-22T15:35:56.221Z,23.80
2019-04-22T15:38:28.074Z,23.70
2019-04-22T15:40:58.665Z,23.50
2019-04-22T15:43:31.240Z,23.50
2019-04-22T15:46:03.693Z,23.60
2019-04-22T15:48:34.131Z,23.50
2019-04-22T15:51:04.950Z,23.40
2019-04-22T15:53:35.788Z,23.30
2019-04-22T15:56:06.355Z,23.30
2019-04-22T15:58:37.460Z,23.00
2019-04-22T16:01:15.124Z,22.70
2019-04-22T16:03:40.666Z,22.60
2019-04-22T16:06:12.249Z,22.60
2019-04-22T16:08:43.756Z,22.60
2019-04-22T16:11:14.263Z,22.40
2019-04-22T16:13:44.488Z,22.40
2019-04-22T16:16:14.800Z,22.30
2019-04-22T16:18:46.378Z,22.20
2019-04-22T16:21:27.688Z,22.20
2019-04-22T16:24:11.104Z,22.20
2019-04-22T16:26:44.635Z,22.00
2019-04-22T16:29:15.900Z,21.90
2019-04-22T16:31:47.553Z,21.80
2019-04-22T16:34:17.892Z,21.70
2019-04-22T16:36:49.046Z,21.60
2019-04-22T16:39:22.781Z,21.60
2019-04-22T16:41:53.184Z,21.60
2019-04-22T16:44:24.743Z,21.50
2019-04-22T16:46:55.387Z,21.30
2019-04-22T16:49:25.903Z,21.30
2019-04-22T16:51:58.253Z,21.10
2019-04-22T16:54:28.801Z,21.00
2019-04-22T16:56:59.795Z,20.90
2019-04-22T16:59:30.754Z,20.80
2019-04-22T17:02:18.930Z,20.80
2019-04-22T17:04:55.998Z,20.80
2019-04-22T17:07:26.528Z,20.80
2019-04-22T17:09:57.591Z,20.80
2019-04-22T17:12:43.364Z,20.80
2019-04-22T17:15:04.586Z,20.70
2019-04-22T17:17:32.693Z,20.70
2019-04-22T17:20:03.098Z,20.60
2019-04-22T17:22:33.601Z,20.60
2019-04-22T17:25:04.462Z,20.40
2019-04-22T17:27:34.825Z,20.40
2019-04-22T17:30:06.528Z,20.30
2019-04-22T17:32:37.793Z,20.20
2019-04-22T17:35:10.285Z,20.30
2019-04-22T17:37:41.439Z,20.30
2019-04-22T17:40:30.334Z,20.30
2019-04-22T17:43:06.939Z,20.20
2019-04-22T17:45:49.248Z,20.20
2019-04-22T17:48:48.907Z,20.10
2019-04-22T17:51:22.700Z,20.10
2019-04-22T17:53:54.997Z,20.00
2019-04-22T17:56:21.651Z,20.00
2019-04-22T17:58:57.390Z,19.90
2019-04-22T18:01:29.748Z,19.80
2019-04-22T18:03:45.675Z,19.70
2019-04-22T18:06:26.824Z,19.60
2019-04-22T18:09:01.773Z,19.50
2019-04-22T18:11:44.205Z,19.50
2019-04-22T18:14:25.970Z,19.40
2019-04-22T18:16:43.429Z,19.30
2019-04-22T18:19:11.856Z,19.20
2019-04-22T18:21:35.007Z,19.10
2019-04-22T18:24:06.803Z,19.00
2019-04-22T18:26:47.962Z,19.00
2019-04-22T18:29:22.296Z,18.80
2019-04-22T18:31:47.515Z,18.80
2019-04-22T18:34:23.945Z,18.80
2019-04-22T18:37:01.806Z,18.80
2019-04-22T18:39:55.719Z,18.70
2019-04-22T18:42:04.865Z,18.50
2019-04-22T18:44:44.422Z,18.50
2019-04-22T18:47:10.600Z,18.40
2019-04-22T18:49:37.650Z,18.40
2019-04-22T18:52:27.888Z,18.30
2019-04-22T18:55:14.622Z,18.30
2019-04-22T18:58:01.108Z,18.30
2019-04-22T19:00:18.536Z,18.20
2019-04-22T19:02:55.842Z,18.10
2019-04-22T19:05:40.396Z,18.20
2019-04-22T19:08:23.109Z,18.20
2019-04-22T19:11:09.958Z,18.20
2019-04-22T19:13:56.096Z,18.30
2019-04-22T19:16:01.727Z,18.40
2019-04-22T19:18:37.952Z,18.40
2019-04-22T19:21:06.025Z,18.40
2019-04-22T19:23:44.976Z,18.30
2019-04-22T19:26:23.191Z,18.10
2019-04-22T19:28:48.328Z,17.90
2019-04-22T19:31:22.004Z,18.00
2019-04-22T19:33:49.648Z,18.00
2019-04-22T19:36:21.253Z,18.10
2019-04-22T19:43:58.925Z,18.00
2019-04-22T19:46:23.290Z,18.00
2019-04-22T19:49:06.573Z,18.00
2019-04-22T19:51:39.914Z,17.80
2019-04-22T19:54:04.298Z,17.80
2019-04-22T19:56:28.196Z,17.80
2019-04-22T19:59:12.128Z,17.80
2019-04-22T20:02:00.730Z,17.80
2019-04-22T20:04:59.723Z,17.70
2019-04-22T20:07:31.218Z,17.70
2019-04-22T20:09:57.234Z,17.60
2019-04-22T20:12:34.820Z,17.50
2019-04-22T20:15:02.611Z,17.60
2019-04-22T20:17:44.853Z,17.70
2019-04-22T20:20:09.860Z,17.70
2019-04-22T20:22:37.466Z,17.70
2019-04-22T20:25:02.948Z,17.70
2019-04-22T20:27:47.337Z,17.70
2019-04-22T20:30:17.328Z,17.90
2019-04-22T20:32:47.877Z,17.90
2019-04-22T20:35:20.918Z,17.80
2019-04-22T20:38:04.265Z,17.80
2019-04-22T20:40:31.983Z,17.80
2019-04-22T20:43:04.476Z,17.80
2019-04-22T20:45:34.902Z,17.70
2019-04-22T20:47:53.845Z,17.80
2019-04-22T20:50:36.162Z,17.80
2019-04-22T20:53:16.093Z,17.80
2019-04-22T20:55:43.561Z,17.80
2019-04-22T20:58:15.428Z,17.80
2019-04-22T21:00:40.363Z,17.90
2019-04-22T21:03:10.380Z,17.90
2019-04-22T21:05:44.747Z,17.90
2019-04-22T21:08:24.140Z,17.90
2019-04-22T21:10:46.692Z,17.90
2019-04-22T21:13:26.114Z,17.90
2019-04-22T21:16:04.093Z,17.70
2019-04-22T21:18:27.747Z,17.60
2019-04-22T21:21:07.180Z,17.40
2019-04-22T21:23:27.617Z,17.30
2019-04-22T21:26:08.353Z,17.30
2019-04-22T21:28:38.404Z,17.20
2019-04-22T21:31:10.237Z,17.30
2019-04-22T21:33:48.950Z,17.30
2019-04-22T21:36:20.158Z,17.30
2019-04-22T21:38:52.052Z,17.40
2019-04-22T21:41:20.337Z,17.40
2019-04-22T21:43:55.623Z,17.30
2019-04-22T21:46:22.955Z,17.20
2019-04-22T21:48:59.771Z,17.20
2019-04-22T21:51:33.074Z,17.10
2019-04-22T21:54:04.012Z,17.10
2019-04-22T21:57:01.764Z,17.00
2019-04-22T21:59:15.554Z,16.90
2019-04-22T22:02:00.390Z,17.00
2019-04-22T22:04:24.525Z,17.00
2019-04-22T22:06:51.262Z,17.00
2019-04-22T22:09:31.551Z,16.90
2019-04-22T22:11:59.446Z,16.90
2019-04-22T22:14:31.689Z,16.80
2019-04-22T22:17:01.321Z,16.70
2019-04-22T22:19:44.449Z,16.70
2019-04-22T22:22:28.509Z,16.70
2019-04-22T22:24:54.737Z,16.70
2019-04-22T22:27:18.545Z,16.70
2019-04-22T22:30:05.495Z,16.60
2019-04-22T22:32:26.107Z,16.60
2019-04-22T22:35:01.750Z,16.40
2019-04-22T22:37:13.330Z,16.40
2019-04-22T22:39:48.441Z,16.40
2019-04-22T22:42:19.069Z,16.40
2019-04-22T22:44:46.593Z,16.40
2019-04-22T22:47:30.332Z,16.30
2019-04-22T22:50:03.117Z,16.20
2019-04-22T22:52:57.181Z,16.20
2019-04-22T22:55:10.472Z,16.10
2019-04-22T22:57:44.662Z,16.10
2019-04-22T23:00:15.086Z,16.20
2019-04-22T23:03:02.213Z,16.30
2019-04-22T23:05:22.286Z,16.20
2019-04-22T23:07:57.203Z,16.10
2019-04-22T23:10:18.077Z,16.10
2019-04-22T23:12:55.590Z,16.00
2019-04-22T23:15:25.932Z,16.00
2019-04-22T23:17:39.295Z,16.00
2019-04-22T23:20:09.697Z,16.00
2019-04-22T23:23:03.927Z,16.00
2019-04-22T23:25:33.366Z,16.10
2019-04-22T23:28:04.055Z,16.00
2019-04-22T23:30:56.883Z,16.00
2019-04-22T23:33:39.183Z,16.00
2019-04-22T23:36:16.352Z,16.00
2019-04-22T23:39:00.054Z,15.90
2019-04-22T23:44:13.505Z,15.90
2019-04-22T23:46:56.583Z,15.90
2019-04-22T23:49:25.317Z,15.80
2019-04-22T23:52:22.693Z,15.80
2019-04-22T23:54:39.299Z,15.80
2019-04-22T23:57:04.615Z,15.80
2019-04-22T23:59:49.305Z,15.90
